Marystown, Canada
Current Conditions -  °F | °C
As of 10:00 PM on Saturday 22 Nov 2014 (Local Time) from LFVP Reporting Station
Broken Clouds Broken Clouds  
Wind Chill: 18°   Ceiling: 3300
Heat Index: 32°   Visibility: 6mi
Dew Point: 23°   Wind: 29mph
Humidity: 69%   Direction: 260°W
Pressure: 29.83"   Gusts: NA
Location:  47.17°N, 55.17°W
Report Text: LFVP 230100Z 26025KT 9999 SCT026 BKN033 M00/M05 Q1010 NOSIG
Loading
Personal Weather Stations






























Interactive Weather Map New forecast layout! Learn more

10-Day Weather Forecast

Advertisements
Track Severe Weather on mobile